logo
Search for airport 
image banner adimage banner adimage banner ad
image banner ad

BIKL - Kirkjubaejarklaustur

Located in Kirkjubaejarklaustur, Iceland

ICAO - BIKL, IATA -

Data provided by Airmate  

General information

Coordinates: N63°47'34" W18°0'14"
Elevation is 71 feet MSL.
 
View others Airports in South

Operational data

Special qualification required
Current time UTC:
Current local time:
Weather at : - ( 0 km )
METAR: LWSK 130550Z VRB01KT CAVOK 15/12 Q1027 NOSIG
View NOTAMs / SUP AIP / TFR affecting this airport [VIEW]
Communications frequencies: [VIEW]

Runways:

RWY identifierQFULength (ft)Width (ft)SurfaceLDA (ft)
08262185GRAVE
26262185GRAVE

Airport contact information

Address: Kirkjubaejarklaustur Iceland

Satellite view of BIKL